Decoded Metar for YPEA (PEARCE (AUS-AFB) in AUSTRALIA) (IATA:N/A) | Meteo·Mobile Aviation Weather
aviador You're here:

YPEA Decoded Metar

PEARCE (AUS-AFB) in AUSTRALIA
Report Time2019-02-16 07:30:00
UTC Time2019-02-16 07:58:02
Flight Rules vfr VFR
Wind240° at 15 kt
W.Decomp.*RWY 23: 14.7 kt HW 2.9 kt RCW
RWY 18: 7.3 kt HW 13.1 kt RCW
W.Rank240° ranks 18
Current wind is above 240° avg. (9.9)
Visibility9999 m
Phenomena:N/A
Clouds:N/A
Expected CloudBase > 6,800 ft AGL from Temp-Dew spread
CeilingNone
Temp31°C (ISA +16)
Dew Point14°C (35% RH)
Heat Index30.3°C
AAT26.8°C
QNH1014 hPa
Density Alt2,208 ft
Elevation161 ft
Report Wrong Elevation
Raw Report
YPEA 160730Z AUTO 24015KT 9999 // NCD 31/14 Q1014=

Extra information for YPEA:More info

Metar Taf Metar & Taf Last 4 Metars F.Rules Stats Wind Profile Meteogram Temp Stats Airport Information Weather charts Add Link Nearby VenuesMetar ALERT Operation Metar Decoded Social comments